Latest Weather Observations for South Channel Island

IDV60801

Issued at 9:05 pm EST Monday 1 September 2014 (issued every 30 minutes, with the page automatically refreshed every 10 minutes)

About weather observations | Map of weather stations | Latest weather observations for VIC | Other Formats
Station Details ID: 086344 Name: SOUTH CHANNEL ISLAND Lat: -38.31 Lon: 144.80 Height: 9.0 m
Data from the previous 72 hours. | See also: Recent months for locations in Victoria
Date/Time
EST
Temp
°C
App
Temp
°C
Dew
Point
Rel
Hum
%
Delta-T
°C
Wind Press
QNH
hPa
Press
MSL
hPa
Rain
since 9 am
mm
Dir
 
Spd
km/h
Gust
km/h
Spd
kts
Gust
kts
01/09:00pm - - - - - SW 22 30 12 16 - - -
01/08:30pm - - - - - SW 24 28 13 15 - - -
01/08:00pm - - - - - SSW 22 26 12 14 - - -
01/07:30pm - - - - - SW 28 33 15 18 - - -
01/07:00pm - - - - - SW 32 35 17 19 - - -
01/06:30pm - - - - - SW 33 39 18 21 - - -
01/06:00pm - - - - - SW 32 35 17 19 - - -
01/05:30pm - - - - - SW 30 35 16 19 - - -
01/05:00pm - - - - - SW 33 37 18 20 - - -
01/04:30pm - - - - - SW 33 41 18 22 - - -
01/04:00pm - - - - - SW 30 35 16 19 - - -
01/03:30pm - - - - - SW 30 39 16 21 - - -
01/03:00pm - - - - - WSW 20 26 11 14 - - -
01/02:30pm - - - - - WSW 28 33 15 18 - - -
01/02:00pm - - - - - WNW 26 30 14 16 - - -
01/01:30pm - - - - - NW 26 30 14 16 - - -
01/01:00pm - - - - - NW 22 26 12 14 - - -
01/12:30pm - - - - - NNW 22 26 12 14 - - -
01/12:00pm - - - - - NNW 26 30 14 16 - - -
01/11:30am - - - - - N 28 33 15 18 - - -
01/11:00am - - - - - NW 26 28 14 15 - - -
01/10:30am - - - - - NW 24 28 13 15 - - -
01/10:00am - - - - - N 26 32 14 17 - - -
01/09:30am - - - - - NNW 30 32 16 17 - - -
01/09:00am - - - - - NNW 19 22 10 12 - - -
01/08:30am - - - - - NNW 28 32 15 17 - - -
01/08:00am - - - - - N 28 30 15 16 - - -
01/07:30am - - - - - N 32 39 17 21 - - -
01/07:00am - - - - - N 32 37 17 20 - - -
01/06:30am - - - - - N 33 37 18 20 - - -
01/06:00am - - - - - N 37 41 20 22 - - -
01/05:30am - - - - - NNW 35 43 19 23 - - -
01/05:24am - - - - - NNW 39 43 21 23 - - -
01/05:00am - - - - - N 44 52 24 28 - - -
01/04:30am - - - - - N 39 44 21 24 - - -
01/04:00am - - - - - N 41 48 22 26 - - -
01/03:30am - - - - - N 44 52 24 28 - - -
01/03:00am - - - - - N 46 54 25 29 - - -
01/02:30am - - - - - N 44 56 24 30 - - -
01/02:00am - - - - - N 39 44 21 24 - - -
01/01:30am - - - - - N 41 48 22 26 - - -
01/01:00am - - - - - N 43 48 23 26 - - -
01/12:30am - - - - - N 46 54 25 29 - - -
01/12:00am - - - - - N 37 39 20 21 - - -
 
Date/Time
EST
Temp
°C
App
Temp
°C
Dew
Point
Rel
Hum
%
Delta-T
°C
Wind Press
QNH
hPa
Press
MSL
hPa
Rain
since 9 am
mm
Dir
 
Spd
km/h
Gust
km/h
Spd
kts
Gust
kts
31/11:30pm - - - - - N 20 26 11 14 - - -
31/11:00pm - - - - - N 32 35 17 19 - - -
31/10:30pm - - - - - NNE 20 28 11 15 - - -
31/10:00pm - - - - - NNE 37 41 20 22 - - -
31/09:30pm - - - - - NNE 35 39 19 21 - - -
31/09:00pm - - - - - NNE 28 30 15 16 - - -
31/08:30pm - - - - - NNE 28 30 15 16 - - -
31/08:00pm - - - - - NNE 26 28 14 15 - - -
31/07:30pm - - - - - NNE 33 37 18 20 - - -
31/07:00pm - - - - - NNE 32 33 17 18 - - -
31/06:30pm - - - - - N 39 43 21 23 - - -
31/06:00pm - - - - - N 46 50 25 27 - - -
31/05:30pm - - - - - N 39 46 21 25 - - -
31/05:00pm - - - - - N 33 39 18 21 - - -
31/04:30pm - - - - - N 32 35 17 19 - - -
31/04:00pm - - - - - N 35 37 19 20 - - -
31/03:30pm - - - - - N 33 37 18 20 - - -
31/03:00pm - - - - - N 33 35 18 19 - - -
31/02:30pm - - - - - N 33 35 18 19 - - -
31/02:00pm - - - - - N 32 33 17 18 - - -
31/01:30pm - - - - - N 30 33 16 18 - - -
31/01:00pm - - - - - N 37 41 20 22 - - -
31/12:30pm - - - - - N 33 37 18 20 - - -
31/12:00pm - - - - - N 33 39 18 21 - - -
31/11:30am - - - - - N 33 37 18 20 - - -
31/11:00am - - - - - NE 17 22 9 12 - - -
31/10:30am - - - - - NE 26 30 14 16 - - -
31/10:00am - - - - - NNE 32 37 17 20 - - -
31/09:30am - - - - - NNE 33 37 18 20 - - -
31/09:00am - - - - - NNE 35 39 19 21 - - -
31/08:30am - - - - - NNE 33 37 18 20 - - -
31/08:00am - - - - - NNE 35 39 19 21 - - -
31/07:30am - - - - - N 35 39 19 21 - - -
31/07:00am - - - - - N 30 32 16 17 - - -
31/06:30am - - - - - NNE 24 30 13 16 - - -
31/06:00am - - - - - NNE 24 28 13 15 - - -
31/05:30am - - - - - NNE 28 32 15 17 - - -
31/05:00am - - - - - NNE 26 28 14 15 - - -
31/04:30am - - - - - NNE 24 26 13 14 - - -
31/04:00am - - - - - NE 22 26 12 14 - - -
31/03:30am - - - - - NE 22 24 12 13 - - -
31/03:00am - - - - - NE 22 26 12 14 - - -
31/02:30am - - - - - NE 20 24 11 13 - - -
31/02:00am - - - - - NE 22 26 12 14 - - -
31/01:30am - - - - - NE 20 24 11 13 - - -
31/01:00am - - - - - NE 19 22 10 12 - - -
31/12:30am - - - - - NE 17 19 9 10 - - -
31/12:00am - - - - - NE 17 19 9 10 - - -
 
Date/Time
EST
Temp
°C
App
Temp
°C
Dew
Point
Rel
Hum
%
Delta-T
°C
Wind Press
QNH
hPa
Press
MSL
hPa
Rain
since 9 am
mm
Dir
 
Spd
km/h
Gust
km/h
Spd
kts
Gust
kts
30/11:30pm - - - - - ENE 24 26 13 14 - - -
30/11:00pm - - - - - ENE 28 30 15 16 - - -
30/10:30pm - - - - - ENE 28 30 15 16 - - -
30/10:00pm - - - - - ENE 22 26 12 14 - - -
30/09:30pm - - - - - ENE 26 30 14 16 - - -
30/09:00pm - - - - - ENE 26 28 14 15 - - -
30/08:30pm - - - - - ENE 20 24 11 13 - - -
30/08:00pm - - - - - ENE 28 30 15 16 - - -
30/07:30pm - - - - - E 26 28 14 15 - - -
30/07:00pm - - - - - E 26 28 14 15 - - -
30/06:30pm - - - - - E 19 22 10 12 - - -
30/06:00pm - - - - - E 11 13 6 7 - - -
30/05:30pm - - - - - E 9 11 5 6 - - -
30/05:00pm - - - - - E 11 13 6 7 - - -
30/04:30pm - - - - - ESE 11 13 6 7 - - -
30/04:00pm - - - - - E 9 11 5 6 - - -
30/03:30pm - - - - - E 13 15 7 8 - - -
30/03:00pm - - - - - E 15 17 8 9 - - -
30/02:30pm - - - - - ESE 9 11 5 6 - - -
30/02:00pm - - - - - E 6 9 3 5 - - -
30/01:30pm - - - - - NE 4 7 2 4 - - -
30/01:00pm - - - - - NE 11 11 6 6 - - -
30/12:30pm - - - - - NNE 15 15 8 8 - - -
30/12:00pm - - - - - NNE 15 17 8 9 - - -
30/11:30am - - - - - NE 17 19 9 10 - - -
30/11:00am - - - - - NE 19 20 10 11 - - -
30/10:30am - - - - - NNE 13 15 7 8 - - -
30/10:00am - - - - - NNE 11 15 6 8 - - -
30/09:30am - - - - - N 9 15 5 8 - - -
30/09:00am - - - - - N 13 19 7 10 - - -
30/08:30am - - - - - N 15 20 8 11 - - -
30/08:00am - - - - - NNE 17 22 9 12 - - -
30/07:30am - - - - - NE 17 20 9 11 - - -
30/07:00am - - - - - NE 19 22 10 12 - - -
30/06:30am - - - - - ENE 19 22 10 12 - - -
30/06:00am - - - - - ENE 20 24 11 13 - - -
30/05:30am - - - - - ENE 22 26 12 14 - - -
30/05:00am - - - - - ENE 24 28 13 15 - - -
30/04:30am - - - - - ENE 28 32 15 17 - - -
30/04:00am - - - - - ENE 30 33 16 18 - - -
30/03:30am - - - - - ENE 26 32 14 17 - - -
30/03:00am - - - - - ENE 24 28 13 15 - - -
30/02:30am - - - - - E 17 19 9 10 - - -
30/02:00am - - - - - E 15 19 8 10 - - -
30/01:30am - - - - - E 13 15 7 8 - - -
30/01:00am - - - - - SE 19 20 10 11 - - -
30/12:30am - - - - - SSE 19 20 10 11 - - -
30/12:00am - - - - - SSE 17 19 9 10 - - -
 
Date/Time
EST
Temp
°C
App
Temp
°C
Dew
Point
Rel
Hum
%
Delta-T
°C
Wind Press
QNH
hPa
Press
MSL
hPa
Rain
since 9 am
mm
Dir
 
Spd
km/h
Gust
km/h
Spd
kts
Gust
kts
29/11:30pm - - - - - SSE 19 20 10 11 - - -
29/11:00pm - - - - - S 19 20 10 11 - - -
29/10:30pm - - - - - SSE 17 20 9 11 - - -
29/10:00pm - - - - - S 15 17 8 9 - - -
29/09:30pm - - - - - S 15 17 8 9 - - -

Other Formats:

Comma delimited format used in spreadsheet applications
http://www.bom.gov.au/fwo/IDV60801/IDV60801.94853.axf

JavaScript Object Notation format (JSON) in row-major order
http://www.bom.gov.au/fwo/IDV60801/IDV60801.94853.json